Time;durP1;ratioP1;P1;durP2;ratioP2;P2;SDS_P1;SDS_P2;PMS_P1;PMS_P2;Temp;Humidity;BMP_temperature;BMP_pressure;BME280_temperature;BME280_humidity;BME280_pressure;Samples;Min_cycle;Max_cycle;Signal;HPM_P1;HPM_P2
2023/01/07 00:01:13;;;;;;;6.68;5.03;;;;;;;14.59;73.91;101549.47;4998336;28;20030;-41
2023/01/07 00:03:40;;;;;;;9.57;5.10;;;;;;;14.59;73.54;101558.22;5002157;28;20072;-46
2023/01/07 00:06:10;;;;;;;7.20;5.10;;;;;;;14.40;73.84;101552.81;4999250;28;20418;-41
2023/01/07 00:08:39;;;;;;;6.28;4.68;;;;;;;14.69;73.36;101540.81;5002946;28;20061;-44
2023/01/07 00:11:07;;;;;;;7.05;4.70;;;;;;;14.56;73.71;101541.59;4998302;28;20038;-47
2023/01/07 00:13:33;;;;;;;6.90;4.80;;;;;;;14.51;73.68;101544.19;5002432;28;20045;-46
2023/01/07 00:16:05;;;;;;;5.95;4.68;;;;;;;14.67;73.03;101539.91;4998742;28;20049;-44
2023/01/07 00:18:30;;;;;;;7.50;4.60;;;;;;;14.50;73.63;101546.78;5002470;28;20034;-41
2023/01/07 00:21:00;;;;;;;7.45;4.60;;;;;;;14.38;73.72;101538.81;4997837;28;20450;-43
2023/01/07 00:23:27;;;;;;;6.22;4.40;;;;;;;14.09;73.86;101548.97;5005059;28;20053;-41
2023/01/07 00:26:02;;;;;;;6.13;4.30;;;;;;;14.34;73.33;101539.59;5002323;28;20033;-40
2023/01/07 00:28:28;;;;;;;6.57;4.40;;;;;;;14.37;72.94;101531.78;5006111;28;20054;-41
2023/01/07 00:31:10;;;;;;;5.65;4.00;;;;;;;14.38;73.15;101538.81;5001745;28;20116;-41
2023/01/07 00:33:40;;;;;;;6.00;4.20;;;;;;;14.38;73.00;101531.81;5006089;28;20057;-41
2023/01/07 00:36:07;;;;;;;5.68;4.10;;;;;;;14.64;72.21;101536.41;5002045;28;20469;-40
2023/01/07 00:38:33;;;;;;;6.90;4.00;;;;;;;14.44;72.68;101537.13;5006119;28;20346;-43
2023/01/07 00:40:59;;;;;;;5.75;3.88;;;;;;;14.02;73.84;101534.97;5001003;28;20034;-43
2023/01/07 00:43:25;;;;;;;5.15;3.50;;;;;;;14.64;71.81;101529.38;5005624;28;20797;-43
2023/01/07 00:45:50;;;;;;;6.15;3.47;;;;;;;14.38;71.94;101515.22;5001974;28;20030;-41
2023/01/07 00:48:17;;;;;;;4.90;3.28;;;;;;;14.42;72.14;101512.63;5006038;28;20030;-41
2023/01/07 00:50:43;;;;;;;5.00;3.40;;;;;;;14.46;71.51;101516.13;5005124;28;20095;-44
2023/01/07 00:53:10;;;;;;;4.13;3.22;;;;;;;14.62;71.44;101504.91;5002734;28;20046;-42
2023/01/07 00:55:35;;;;;;;7.85;3.70;;;;;;;14.40;72.13;101506.47;5005990;28;20030;-41
2023/01/07 00:58:01;;;;;;;5.63;3.45;;;;;;;14.59;71.02;101510.09;5002242;28;20048;-40
2023/01/07 01:00:26;;;;;;;6.25;3.70;;;;;;;14.77;70.88;101506.72;5005349;28;20088;-42
2023/01/07 01:02:51;;;;;;;5.75;3.50;;;;;;;14.50;71.49;101505.69;5005855;28;20050;-42
2023/01/07 01:05:18;;;;;;;4.97;3.33;;;;;;;14.66;70.57;101500.53;5001767;28;20490;-40
2023/01/07 01:07:43;;;;;;;4.78;3.30;;;;;;;14.38;71.60;101494.22;5006155;28;20121;-46
2023/01/07 01:10:11;;;;;;;6.38;3.50;;;;;;;14.61;71.13;101488.25;5002420;28;20109;-41
2023/01/07 01:12:37;;;;;;;4.78;3.50;;;;;;;14.59;71.10;101486.50;5005277;28;20044;-40
2023/01/07 01:15:05;;;;;;;5.32;3.50;;;;;;;14.57;70.80;101483.00;5001983;28;20042;-41
2023/01/07 01:17:30;;;;;;;5.68;3.65;;;;;;;14.75;69.75;101474.34;5006263;28;20026;-46
2023/01/07 01:19:56;;;;;;;7.00;3.80;;;;;;;14.28;71.51;101474.84;5000797;28;20080;-43
2023/01/07 01:22:21;;;;;;;6.25;3.70;;;;;;;14.28;71.67;101474.84;5005868;28;20034;-40
2023/01/07 01:24:47;;;;;;;5.35;3.72;;;;;;;14.39;71.02;101459.25;5002183;28;20474;-41
2023/01/07 01:27:13;;;;;;;5.40;3.70;;;;;;;14.44;70.67;101471.53;5005337;28;20041;-42
2023/01/07 01:29:38;;;;;;;6.07;3.70;;;;;;;13.93;72.17;101466.72;5004802;28;20034;-40
2023/01/07 01:32:04;;;;;;;5.95;3.40;;;;;;;14.25;71.33;101471.34;5000365;28;20045;-41
2023/01/07 01:34:29;;;;;;;4.95;3.50;;;;;;;14.14;71.62;101463.41;4986760;28;20510;-45
2023/01/07 01:36:54;;;;;;;6.82;3.55;;;;;;;14.38;71.05;101458.38;5000627;28;20092;-41
2023/01/07 01:39:19;;;;;;;5.55;3.30;;;;;;;14.40;70.36;101459.25;5005120;28;20034;-41
2023/01/07 01:41:48;;;;;;;5.63;3.30;;;;;;;14.41;70.34;101463.63;5004019;28;20105;-41
2023/01/07 01:44:35;;;;;;;5.90;3.38;;;;;;;14.54;69.80;101454.97;5001730;28;20489;-44
2023/01/07 01:47:05;;;;;;;5.60;3.85;;;;;;;14.36;70.40;101454.81;5001338;28;20057;-41
2023/01/07 01:49:35;;;;;;;5.88;3.78;;;;;;;14.49;69.89;101461.94;5004744;28;20518;-40
2023/01/07 01:52:10;;;;;;;7.68;3.88;;;;;;;14.12;71.39;101459.88;4999951;28;20030;-41
2023/01/07 01:54:36;;;;;;;5.57;4.10;;;;;;;14.31;70.63;101463.53;5004403;28;20034;-40
2023/01/07 01:57:05;;;;;;;7.82;4.63;;;;;;;14.42;70.05;101467.13;4999815;28;20043;-42
2023/01/07 01:59:33;;;;;;;7.93;4.25;;;;;;;14.45;69.92;101457.56;5004189;28;20052;-45
2023/01/07 02:01:59;;;;;;;8.35;4.82;;;;;;;14.34;70.69;101466.16;4999728;28;20103;-41
2023/01/07 02:04:28;;;;;;;8.10;4.70;;;;;;;14.32;70.72;101463.53;5004033;28;20491;-41
2023/01/07 02:07:01;;;;;;;6.35;4.50;;;;;;;14.12;71.33;101460.75;5000556;28;20029;-41
2023/01/07 02:09:27;;;;;;;9.07;5.00;;;;;;;14.00;71.30;101454.53;5003883;28;20038;-46
2023/01/07 02:11:58;;;;;;;8.05;5.18;;;;;;;14.22;71.02;101448.59;4999474;28;20487;-39
2023/01/07 02:14:23;;;;;;;7.82;5.10;;;;;;;14.25;70.87;101455.63;5004666;28;20033;-42
2023/01/07 02:16:51;;;;;;;9.07;5.25;;;;;;;14.16;70.97;101446.78;5000587;28;20025;-40
2023/01/07 02:20:03;;;;;;;7.40;5.15;;;;;;;14.09;71.10;101454.59;5004460;28;20041;-41
2023/01/07 02:22:50;;;;;;;6.80;5.20;;;;;;;14.12;70.91;101442.41;4999349;28;20042;-41
2023/01/07 02:25:33;;;;;;;8.80;5.40;;;;;;;13.66;72.64;101448.97;5000089;28;20029;-43
2023/01/07 02:28:25;;;;;;;9.40;5.25;;;;;;;14.07;70.96;101448.47;5000502;28;20088;-41
2023/01/07 02:31:00;;;;;;;8.50;5.30;;;;;;;14.11;70.77;101447.63;4999967;28;20490;-41
2023/01/07 02:33:44;;;;;;;7.97;5.25;;;;;;;13.98;71.00;101444.03;5004873;28;20045;-41
2023/01/07 02:36:12;;;;;;;8.52;5.20;;;;;;;13.97;71.13;101444.88;5001262;28;20048;-41
2023/01/07 02:39:02;;;;;;;7.88;5.18;;;;;;;14.03;70.74;101441.44;5008977;28;20449;-42
2023/01/07 02:41:34;;;;;;;8.60;4.97;;;;;;;14.04;70.78;101443.19;5010127;28;20037;-41
2023/01/07 02:44:18;;;;;;;9.73;5.10;;;;;;;13.56;72.10;101438.38;5011786;28;20133;-40
2023/01/07 02:46:51;;;;;;;8.37;5.10;;;;;;;13.90;70.87;101435.25;5011977;28;20034;-43
2023/01/07 02:49:17;;;;;;;8.25;4.82;;;;;;;13.84;71.51;101435.19;5012867;28;20037;-40
2023/01/07 02:51:43;;;;;;;7.95;4.80;;;;;;;13.85;71.30;101436.03;5011334;28;20069;-40
2023/01/07 02:54:18;;;;;;;8.20;5.00;;;;;;;13.84;71.25;101435.19;5010632;28;20153;-43
2023/01/07 02:57:06;;;;;;;8.07;5.10;;;;;;;13.79;71.07;101421.13;5008928;28;20045;-40
2023/01/07 02:59:52;;;;;;;7.90;4.78;;;;;;;13.75;71.22;101415.00;5010337;28;20048;-42
2023/01/07 03:02:51;;;;;;;7.30;4.88;;;;;;;14.05;70.06;101424.88;5006337;28;20042;-41
2023/01/07 03:05:32;;;;;;;7.75;4.90;;;;;;;13.68;71.46;101422.78;5010892;28;20104;-42
2023/01/07 03:08:19;;;;;;;7.07;4.55;;;;;;;14.00;70.25;101410.84;5007488;28;20104;-42
2023/01/07 03:11:01;;;;;;;7.63;4.72;;;;;;;13.52;71.68;101413.91;5008013;28;20429;-41
2023/01/07 03:13:46;;;;;;;7.75;4.57;;;;;;;13.76;70.70;101416.75;5009508;28;20030;-44
2023/01/07 03:16:27;;;;;;;7.55;4.63;;;;;;;13.78;70.98;101417.63;5008756;28;20044;-42
2023/01/07 03:19:00;;;;;;;8.50;4.40;;;;;;;13.86;70.46;101414.22;5009960;28;20164;-42
2023/01/07 03:21:28;;;;;;;8.40;4.57;;;;;;;13.85;70.29;101408.09;5008324;28;20049;-38
2023/01/07 03:23:56;;;;;;;8.18;4.18;;;;;;;13.81;70.80;101415.06;5007791;28;20434;-41
2023/01/07 03:26:25;;;;;;;9.43;4.30;;;;;;;13.62;71.53;101412.25;5008571;28;20041;-44
2023/01/07 03:28:52;;;;;;;7.38;4.30;;;;;;;13.81;70.54;101401.06;5009091;28;20406;-43
2023/01/07 03:31:18;;;;;;;9.13;4.15;;;;;;;13.96;70.13;101393.34;5007155;28;20038;-41
2023/01/07 03:33:53;;;;;;;7.25;4.53;;;;;;;13.83;70.43;101404.59;5009089;28;20214;-41
2023/01/07 03:36:24;;;;;;;9.57;4.07;;;;;;;13.92;70.03;101399.41;5008108;28;20196;-41
2023/01/07 03:38:51;;;;;;;9.98;4.30;;;;;;;13.81;70.64;101403.69;5009018;28;20191;-40
2023/01/07 03:44:00;;;;;;;7.75;4.15;;;;;;;13.76;70.76;101395.81;5008885;28;20067;-42
2023/01/07 03:46:27;;;;;;;8.73;4.35;;;;;;;13.96;70.25;101393.34;5008102;28;20026;-42
2023/01/07 03:48:52;;;;;;;8.63;4.35;;;;;;;13.78;70.14;101398.44;5008773;28;20072;-47
2023/01/07 03:51:17;;;;;;;7.72;4.38;;;;;;;13.92;70.28;101378.44;5007266;28;20498;-44
2023/01/07 03:53:43;;;;;;;8.55;4.70;;;;;;;13.93;69.89;101380.19;5008859;28;20046;-44
2023/01/07 03:56:08;;;;;;;7.38;4.32;;;;;;;13.97;69.81;101378.47;5008291;28;20037;-43
2023/01/07 03:58:33;;;;;;;7.93;4.38;;;;;;;14.09;69.50;101378.56;5013029;28;20071;-41
2023/01/07 04:00:58;;;;;;;6.43;4.20;;;;;;;13.96;69.36;101380.25;5011681;28;20049;-41
2023/01/07 04:03:24;;;;;;;9.52;4.43;;;;;;;13.81;70.01;101378.38;5013024;28;20133;-40
2023/01/07 04:05:49;;;;;;;7.88;4.57;;;;;;;13.93;69.87;101374.97;5012215;28;20021;-43
2023/01/07 04:08:14;;;;;;;7.43;4.40;;;;;;;14.10;69.23;101375.06;5013199;28;20125;-42
2023/01/07 04:10:40;;;;;;;6.72;4.53;;;;;;;14.07;69.53;101369.81;5012074;28;20030;-43
2023/01/07 04:13:05;;;;;;;7.30;4.53;;;;;;;14.36;68.47;101367.38;5013648;28;20125;-40
2023/01/07 04:15:30;;;;;;;7.93;4.57;;;;;;;14.25;68.57;101355.97;5015214;28;20488;-41
2023/01/07 04:17:56;;;;;;;8.45;4.35;;;;;;;14.01;69.63;101354.06;5010134;28;20030;-46
2023/01/07 04:20:21;;;;;;;6.82;4.50;;;;;;;14.16;69.48;101347.16;5011808;28;20025;-38
2023/01/07 04:22:46;;;;;;;8.45;4.65;;;;;;;14.12;69.66;101357.63;5009478;28;20046;-41
2023/01/07 04:25:12;;;;;;;7.22;4.43;;;;;;;14.33;68.75;101347.28;5013983;28;20108;-41
2023/01/07 04:27:37;;;;;;;8.05;4.57;;;;;;;14.23;68.84;101343.69;5010103;28;20029;-40
2023/01/07 04:30:03;;;;;;;9.30;4.82;;;;;;;14.34;68.47;101342.88;5013746;28;20061;-42
2023/01/07 04:32:29;;;;;;;6.97;4.70;;;;;;;14.50;68.24;101335.16;5008720;28;20034;-43
2023/01/07 04:34:54;;;;;;;8.75;4.95;;;;;;;14.36;68.56;101330.66;5014023;28;20080;-42
2023/01/07 04:37:19;;;;;;;10.88;5.25;;;;;;;14.05;69.19;101325.25;5008856;28;20034;-39
2023/01/07 04:39:45;;;;;;;8.50;4.88;;;;;;;14.19;69.18;101333.19;5014087;28;20033;-41
2023/01/07 04:42:10;;;;;;;8.85;5.22;;;;;;;14.29;69.08;101332.38;5009550;28;20042;-40
2023/01/07 04:44:35;;;;;;;9.50;5.30;;;;;;;14.48;68.18;101328.13;5013292;28;20041;-42
2023/01/07 04:47:00;;;;;;;9.77;5.13;;;;;;;14.22;68.70;101326.22;5011418;28;20088;-41
2023/01/07 04:49:26;;;;;;;10.82;5.38;;;;;;;14.25;69.66;101330.59;5012142;28;20036;-41
2023/01/07 04:51:51;;;;;;;9.73;6.13;;;;;;;13.94;70.80;101318.16;5010430;28;20103;-38
2023/01/07 04:54:16;;;;;;;10.43;5.82;;;;;;;14.16;70.29;101322.66;5011724;28;20491;-42
2023/01/07 04:56:42;;;;;;;8.85;5.97;;;;;;;13.84;71.76;101319.00;5010858;28;20461;-40
2023/01/07 04:59:07;;;;;;;10.38;6.18;;;;;;;13.92;71.46;101304.16;5011620;28;20088;-38
2023/01/07 05:01:32;;;;;;;10.35;6.63;;;;;;;13.78;72.08;101294.47;5010098;28;20046;-42
2023/01/07 05:03:57;;;;;;;11.43;6.47;;;;;;;13.92;71.33;101296.31;5011809;28;20056;-39
2023/01/07 05:06:23;;;;;;;12.63;6.75;;;;;;;13.56;72.50;101292.56;5011322;28;20030;-40
2023/01/07 05:08:49;;;;;;;12.85;6.68;;;;;;;13.54;72.65;101296.91;5010556;28;20042;-44
2023/01/07 05:11:20;;;;;;;11.35;6.80;;;;;;;13.65;72.44;101302.25;5010303;28;20033;-39
2023/01/07 05:13:45;;;;;;;12.15;6.75;;;;;;;13.89;71.66;101294.56;5011690;28;20040;-39
2023/01/07 05:16:10;;;;;;;11.40;6.78;;;;;;;13.84;72.26;101296.28;5011153;28;20046;-41
2023/01/07 05:18:36;;;;;;;12.20;6.90;;;;;;;13.86;71.69;101288.41;5012621;28;20042;-39
2023/01/07 05:21:02;;;;;;;11.55;7.00;;;;;;;13.98;71.45;101283.25;5010119;28;20037;-41
2023/01/07 05:23:27;;;;;;;10.65;7.20;;;;;;;13.80;72.17;101282.25;5010801;28;20073;-39
2023/01/07 05:25:52;;;;;;;11.25;6.78;;;;;;;13.81;71.99;101283.13;5011592;28;20042;-39
2023/01/07 05:28:17;;;;;;;11.27;6.70;;;;;;;13.90;71.46;101285.84;5012656;28;20041;-46
2023/01/07 05:30:43;;;;;;;9.95;6.85;;;;;;;13.82;71.81;101287.53;5010905;28;20022;-43
2023/01/07 05:33:08;;;;;;;11.02;7.25;;;;;;;13.79;71.69;101275.25;5012447;28;20565;-40
2023/01/07 05:35:34;;;;;;;11.80;7.10;;;;;;;13.86;71.31;101280.53;5011676;28;20309;-42
2023/01/07 05:37:59;;;;;;;11.98;6.80;;;;;;;13.74;71.64;101269.13;5004223;28;20037;-41
2023/01/07 05:40:25;;;;;;;10.25;6.40;;;;;;;13.63;71.77;101268.16;5004927;28;20034;-41
2023/01/07 05:42:50;;;;;;;11.20;6.97;;;;;;;13.49;72.02;101269.81;5002772;28;20044;-40
2023/01/07 05:45:15;;;;;;;13.00;6.57;;;;;;;13.61;71.36;101267.28;5008071;28;20037;-41
2023/01/07 05:47:41;;;;;;;11.52;6.72;;;;;;;13.54;71.58;101268.09;5008753;28;20034;-43
2023/01/07 05:50:07;;;;;;;10.98;6.65;;;;;;;13.51;71.51;101260.22;5008917;28;20053;-45
2023/01/07 05:52:32;;;;;;;12.20;6.80;;;;;;;13.35;72.25;101255.75;5011263;28;20034;-42
2023/01/07 05:54:57;;;;;;;10.45;6.40;;;;;;;13.61;71.43;101248.06;5001099;28;20037;-40
2023/01/07 05:57:23;;;;;;;10.80;6.47;;;;;;;13.52;71.17;101245.38;5004727;28;20038;-39
2023/01/07 05:59:48;;;;;;;10.60;6.22;;;;;;;13.64;70.45;101245.47;5000515;28;20387;-40
2023/01/07 06:02:13;;;;;;;9.35;6.07;;;;;;;13.62;70.58;101241.94;5003538;28;20042;-45
2023/01/07 06:04:39;;;;;;;11.02;6.30;;;;;;;13.66;70.34;101243.75;5004446;28;20041;-40
2023/01/07 06:07:04;;;;;;;9.70;6.30;;;;;;;13.61;70.24;101241.06;5000985;28;20168;-41
2023/01/07 06:09:29;;;;;;;10.98;6.43;;;;;;;13.71;69.99;101242.91;5005237;28;20371;-40
2023/01/07 06:11:55;;;;;;;10.57;6.28;;;;;;;13.61;70.42;101237.56;5000352;28;20033;-40
2023/01/07 06:14:20;;;;;;;10.73;6.35;;;;;;;13.46;71.03;101240.97;5004890;28;20033;-48
2023/01/07 06:16:45;;;;;;;12.00;6.78;;;;;;;13.42;70.83;101230.47;5004886;28;20108;-40
2023/01/07 06:19:10;;;;;;;9.85;6.07;;;;;;;13.46;70.71;101224.38;4999889;28;20038;-43
2023/01/07 06:21:36;;;;;;;10.40;6.28;;;;;;;13.34;70.92;101217.31;5003652;28;20076;-41
2023/01/07 06:24:01;;;;;;;8.93;5.90;;;;;;;13.58;70.39;101212.25;5000290;28;20046;-41
2023/01/07 06:26:26;;;;;;;10.30;6.10;;;;;;;13.51;70.80;101206.97;5004317;28;20167;-41
2023/01/07 06:28:52;;;;;;;9.77;5.68;;;;;;;13.32;70.77;101206.81;4999604;28;20041;-44
2023/01/07 06:31:17;;;;;;;10.85;6.10;;;;;;;13.21;71.04;101197.13;5003038;28;20034;-43
2023/01/07 06:33:43;;;;;;;9.95;5.68;;;;;;;13.52;70.17;101198.25;5003755;28;20053;-42
2023/01/07 06:36:09;;;;;;;9.07;5.20;;;;;;;13.56;69.62;101200.00;5000585;28;20069;-41
2023/01/07 06:38:34;;;;;;;11.00;5.38;;;;;;;13.39;70.28;101197.28;5003271;28;20064;-41
2023/01/07 06:41:03;;;;;;;11.45;5.60;;;;;;;13.46;70.13;101200.81;4999931;28;20491;-41
2023/01/07 06:43:28;;;;;;;8.60;5.40;;;;;;;13.32;70.80;101200.72;5004818;28;20042;-41
2023/01/07 06:45:54;;;;;;;9.65;5.20;;;;;;;13.41;70.45;101192.94;5000443;28;20048;-40
2023/01/07 06:48:19;;;;;;;9.55;5.20;;;;;;;13.14;70.92;101197.94;5003310;28;20540;-44
2023/01/07 06:50:45;;;;;;;11.60;5.18;;;;;;;13.16;70.59;101198.84;5002654;28;20037;-42
2023/01/07 06:53:10;;;;;;;10.15;4.85;;;;;;;13.38;69.69;101196.41;4999810;28;20069;-39
2023/01/07 06:55:35;;;;;;;8.02;4.72;;;;;;;13.24;70.28;101191.91;5003996;28;20483;-41
2023/01/07 06:58:01;;;;;;;10.07;4.50;;;;;;;13.15;70.38;101187.50;5000065;28;20437;-41
2023/01/07 07:00:26;;;;;;;9.23;4.50;;;;;;;13.24;69.71;101191.91;5001984;28;20029;-41
2023/01/07 07:02:52;;;;;;;7.72;4.40;;;;;;;13.33;69.65;101187.63;4998823;28;20042;-43
2023/01/07 07:05:17;;;;;;;6.60;4.10;;;;;;;13.49;69.39;101190.34;5003544;28;20502;-40
2023/01/07 07:07:42;;;;;;;6.72;4.00;;;;;;;13.31;69.38;101184.13;5003539;28;20399;-40
2023/01/07 07:10:08;;;;;;;9.68;3.78;;;;;;;13.40;69.05;101168.50;5000197;28;20400;-40
2023/01/07 07:12:35;;;;;;;8.40;3.58;;;;;;;13.68;67.74;101176.50;5002483;28;20037;-40
2023/01/07 07:15:00;;;;;;;6.22;3.33;;;;;;;13.79;67.48;101173.06;4999647;28;20068;-41
2023/01/07 07:17:26;;;;;;;6.75;3.53;;;;;;;13.63;67.57;101172.97;5003356;28;20038;-43
2023/01/07 07:19:51;;;;;;;5.45;3.30;;;;;;;13.58;67.39;101165.09;4999477;28;20411;-41
2023/01/07 07:22:17;;;;;;;8.27;3.72;;;;;;;13.75;66.71;101166.06;5002013;28;20037;-41
2023/01/07 07:24:42;;;;;;;5.30;2.92;;;;;;;13.99;66.24;101164.41;5002945;28;20395;-43
2023/01/07 07:27:07;;;;;;;6.50;2.80;;;;;;;13.58;66.86;101162.47;4999352;28;20073;-43
2023/01/07 07:29:32;;;;;;;4.75;2.78;;;;;;;13.75;65.66;101160.81;5002888;28;20053;-41
2023/01/07 07:31:58;;;;;;;5.10;2.60;;;;;;;14.02;65.45;101157.47;4998189;28;20044;-41
2023/01/07 07:34:23;;;;;;;4.57;2.60;;;;;;;13.68;66.07;101155.53;5003007;28;20116;-43
2023/01/07 07:36:49;;;;;;;5.03;2.42;;;;;;;13.63;65.69;101159.88;5001980;28;20403;-57
2023/01/07 07:39:14;;;;;;;5.40;2.50;;;;;;;13.58;65.38;101151.13;4999868;28;20141;-40
2023/01/07 07:41:40;;;;;;;4.45;2.50;;;;;;;13.97;64.44;101158.28;5002145;28;20030;-40
2023/01/07 07:44:05;;;;;;;5.72;2.60;;;;;;;14.03;64.14;101145.19;4999051;28;20454;-43
2023/01/07 07:46:30;;;;;;;4.07;2.30;;;;;;;14.12;63.76;101147.88;5003010;28;20038;-38
2023/01/07 07:48:56;;;;;;;4.78;2.35;;;;;;;14.17;63.60;101144.38;4998920;28;20510;-42
2023/01/07 07:51:21;;;;;;;7.68;2.50;;;;;;;13.97;63.69;101143.44;5002371;28;20485;-43
2023/01/07 07:53:47;;;;;;;4.68;2.22;;;;;;;13.81;63.97;101136.38;4981568;28;20598;-52
2023/01/07 07:56:12;;;;;;;4.22;2.30;;;;;;;13.75;64.27;101126.75;5003224;28;20084;-43
2023/01/07 07:58:37;;;;;;;5.03;2.35;;;;;;;14.03;63.38;101130.34;5003144;28;20034;-39
2023/01/07 08:01:03;;;;;;;3.70;2.30;;;;;;;13.87;63.52;101122.44;4998463;28;20524;-40
2023/01/07 08:03:28;;;;;;;4.65;2.40;;;;;;;13.92;63.36;101112.84;5002371;28;20124;-43
2023/01/07 08:05:54;;;;;;;3.83;2.03;;;;;;;14.32;62.31;101119.09;4998044;28;20383;-42
2023/01/07 08:08:19;;;;;;;5.28;2.22;;;;;;;14.34;62.18;101120.81;5003310;28;20040;-40
2023/01/07 08:10:44;;;;;;;4.43;2.20;;;;;;;14.34;62.11;101123.44;5002687;28;20034;-40
2023/01/07 08:13:10;;;;;;;4.55;2.20;;;;;;;14.07;61.76;101116.41;4999642;28;20052;-45
2023/01/07 08:15:35;;;;;;;5.30;2.20;;;;;;;13.99;62.93;101120.72;5002493;28;20029;-41
2023/01/07 08:18:04;;;;;;;5.47;2.42;;;;;;;14.19;61.95;101121.69;4999771;28;20682;-43
2023/01/07 08:20:30;;;;;;;4.47;2.30;;;;;;;14.36;61.55;101123.44;5002613;28;20558;-45
2023/01/07 08:23:01;;;;;;;4.47;2.20;;;;;;;14.30;61.62;101123.44;4999418;28;20046;-41
2023/01/07 08:25:28;;;;;;;6.28;2.10;;;;;;;14.20;61.72;101118.19;5003784;28;20036;-41
2023/01/07 08:27:54;;;;;;;4.65;2.20;;;;;;;14.40;60.96;101120.84;4999787;28;20041;-44
2023/01/07 08:30:20;;;;;;;5.18;2.30;;;;;;;14.39;60.88;101121.75;5002602;28;20030;-42
2023/01/07 08:32:46;;;;;;;4.68;2.10;;;;;;;14.45;60.46;101120.88;5003781;28;20030;-42
2023/01/07 08:35:11;;;;;;;4.18;1.98;;;;;;;14.23;60.75;101126.03;4999567;28;20034;-41
2023/01/07 08:37:37;;;;;;;3.67;2.10;;;;;;;14.38;60.15;101120.00;5003746;28;20040;-42
2023/01/07 08:40:03;;;;;;;4.18;1.92;;;;;;;14.53;60.39;101119.13;5000622;28;20034;-42
2023/01/07 08:42:29;;;;;;;3.67;2.03;;;;;;;14.32;60.27;101109.47;5003577;28;20034;-39
2023/01/07 08:44:54;;;;;;;3.05;1.98;;;;;;;14.58;59.99;101106.88;5004971;28;20084;-40
2023/01/07 08:47:20;;;;;;;6.13;1.90;;;;;;;14.34;59.99;101119.94;5009305;28;20034;-39
2023/01/07 08:49:45;;;;;;;5.05;1.80;;;;;;;14.12;60.39;101111.16;5008965;28;20167;-39
2023/01/07 08:52:10;;;;;;;2.58;1.70;;;;;;;14.47;59.69;101111.25;5004057;28;20073;-40
2023/01/07 08:54:36;;;;;;;2.28;1.50;;;;;;;14.18;60.07;101103.31;4996604;28;20049;-40
2023/01/07 08:57:01;;;;;;;3.05;1.60;;;;;;;14.44;59.39;101096.41;4982730;28;20034;-44
2023/01/07 08:59:26;;;;;;;3.10;1.80;;;;;;;14.48;59.51;101099.88;4985663;28;20050;-42
2023/01/07 09:01:52;;;;;;;2.40;1.50;;;;;;;14.48;59.52;101099.88;4982014;28;20045;-42
2023/01/07 09:04:17;;;;;;;3.08;1.70;;;;;;;14.29;59.38;101098.06;4986380;28;20514;-39
2023/01/07 09:06:43;;;;;;;2.95;1.42;;;;;;;14.43;59.42;101092.03;4986210;28;20057;-40
2023/01/07 09:09:09;;;;;;;3.13;1.70;;;;;;;14.61;58.75;101093.78;4982735;28;20067;-41
2023/01/07 09:11:34;;;;;;;1.98;1.48;;;;;;;14.60;58.49;101087.66;4986338;28;20407;-43
2023/01/07 09:13:59;;;;;;;2.95;1.80;;;;;;;14.71;58.73;101082.41;4984646;28;20065;-40
2023/01/07 09:16:25;;;;;;;3.22;1.58;;;;;;;14.75;58.78;101076.31;4987842;28;20510;-40
2023/01/07 09:18:50;;;;;;;4.43;1.60;;;;;;;14.60;59.05;101078.91;4982565;28;20030;-42
2023/01/07 09:21:16;;;;;;;2.88;1.48;;;;;;;14.78;58.66;101068.41;5008075;23;20054;-43
2023/01/07 09:23:41;;;;;;;3.30;1.60;;;;;;;14.52;59.16;101057.91;4985655;28;20039;-41
2023/01/07 09:26:07;;;;;;;3.50;1.58;;;;;;;14.66;58.76;101060.53;4981084;28;20163;-42
2023/01/07 09:28:32;;;;;;;2.45;1.70;;;;;;;14.69;58.86;101042.19;4985544;28;20033;-47
2023/01/07 09:30:58;;;;;;;2.63;1.70;;;;;;;14.80;58.33;101039.53;4980749;28;20042;-44
2023/01/07 09:33:24;;;;;;;2.88;1.60;;;;;;;14.75;58.07;101038.69;4986182;28;20034;-42
2023/01/07 09:35:50;;;;;;;3.67;1.75;;;;;;;14.65;58.32;101044.78;4981290;28;20395;-41
2023/01/07 09:38:15;;;;;;;3.50;1.40;;;;;;;14.72;58.31;101050.03;4988375;28;20084;-42
2023/01/07 09:40:42;;;;;;;2.47;1.60;;;;;;;14.56;57.94;101043.06;4988170;28;20034;-41
2023/01/07 09:43:26;;;;;;;2.47;1.65;;;;;;;14.44;59.12;101043.94;4984501;28;20046;-44
2023/01/07 09:45:54;;;;;;;2.58;1.30;;;;;;;14.55;57.52;101030.81;4981556;28;20035;-41
2023/01/07 09:48:28;;;;;;;2.90;1.50;;;;;;;14.72;57.26;101025.53;4985798;28;20187;-42
2023/01/07 09:50:54;;;;;;;;;;;;;;;14.64;57.14;101011.59;4981563;28;20030;-51
2023/01/07 09:53:31;;;;;;;2.37;1.40;;;;;;;14.51;57.04;101016.84;4985294;28;19913;-43
2023/01/07 09:55:59;;;;;;;2.63;1.40;;;;;;;14.71;56.61;101003.69;4981205;28;20281;-44
2023/01/07 09:58:24;;;;;;;4.78;1.50;;;;;;;14.96;55.90;101013.25;4985835;28;20121;-40
2023/01/07 10:01:15;;;;;;;3.67;1.60;;;;;;;14.53;55.96;101004.56;4981634;28;20460;-43
2023/01/07 10:03:53;;;;;;;3.15;1.50;;;;;;;14.79;55.90;101004.56;4986247;28;20122;-42
2023/01/07 10:06:39;;;;;;;2.75;1.50;;;;;;;14.81;54.79;101002.81;4982429;28;20035;-46
2023/01/07 10:09:33;;;;;;;2.78;1.45;;;;;;;15.16;54.86;100996.56;4981881;28;20077;-47
2023/01/07 10:12:20;;;;;;;2.13;1.42;;;;;;;14.90;53.95;100997.53;4969160;28;20046;-43
2023/01/07 10:15:00;;;;;;;3.20;1.40;;;;;;;15.12;53.53;100990.47;4987709;28;20498;-42
2023/01/07 10:17:46;;;;;;;3.08;1.42;;;;;;;14.82;53.42;100974.81;4986421;28;20581;-42
2023/01/07 10:20:57;;;;;;;2.38;1.45;;;;;;;15.09;53.08;100979.97;4981839;28;20568;-41
2023/01/07 10:23:27;;;;;;;1.90;1.27;;;;;;;15.26;52.79;100966.75;4980994;28;20052;-42
2023/01/07 10:25:57;;;;;;;3.17;1.42;;;;;;;15.47;51.56;100966.69;4980458;28;20046;-46
2023/01/07 10:28:40;;;;;;;2.67;1.30;;;;;;;15.00;52.69;100961.63;4984371;28;20085;-42
2023/01/07 10:31:14;;;;;;;1.80;1.30;;;;;;;15.22;51.61;100950.16;4979867;28;20174;-43
2023/01/07 10:33:40;;;;;;;2.08;1.33;;;;;;;15.07;52.32;100954.56;4993119;28;20403;-44
2023/01/07 10:36:23;;;;;;;1.83;1.30;;;;;;;15.29;51.80;100954.50;4993874;28;20491;-42
2023/01/07 10:39:25;;;;;;;1.75;1.20;;;;;;;15.34;51.29;100926.47;4987001;28;20048;-47
2023/01/07 10:42:25;;;;;;;2.20;1.15;;;;;;;15.55;51.29;100930.75;4978605;28;20092;-41
2023/01/07 10:45:08;;;;;;;2.08;1.20;;;;;;;14.98;52.01;100911.75;4980074;28;20035;-40
2023/01/07 10:47:45;;;;;;;2.03;1.20;;;;;;;15.18;51.84;100911.66;4984167;28;20549;-42
2023/01/07 10:50:42;;;;;;;1.70;1.15;;;;;;;15.10;52.22;100896.81;4980230;28;20034;-42
2023/01/07 10:53:38;;;;;;;1.63;1.17;;;;;;;15.21;51.53;100888.00;4980524;28;20051;-44
2023/01/07 10:56:35;;;;;;;2.28;1.30;;;;;;;15.00;51.99;100875.00;4980332;28;20038;-44
2023/01/07 10:59:00;;;;;;;3.15;1.30;;;;;;;15.26;51.85;100874.84;4980408;28;20038;-42
2023/01/07 11:01:32;;;;;;;2.08;1.30;;;;;;;15.20;52.00;100859.13;4984457;28;20041;-46
2023/01/07 11:03:58;;;;;;;2.20;1.10;;;;;;;14.79;52.20;100848.81;4980760;28;20112;-43
2023/01/07 11:06:46;;;;;;;2.22;1.20;;;;;;;15.21;51.86;100853.84;4983894;28;20030;-46
2023/01/07 11:09:16;;;;;;;3.08;1.20;;;;;;;15.32;51.23;100848.53;4980468;28;20041;-43
2023/01/07 11:11:44;;;;;;;1.85;1.05;;;;;;;15.32;51.61;100843.28;4983332;28;20522;-41
2023/01/07 11:14:14;;;;;;;3.10;1.17;;;;;;;14.69;52.68;100853.25;4979986;28;20061;-42
2023/01/07 11:16:49;;;;;;;2.75;1.17;;;;;;;15.14;51.84;100835.50;4983511;28;20083;-42
2023/01/07 11:19:15;;;;;;;2.20;1.30;;;;;;;15.29;52.20;100831.06;4979941;28;20069;-43
2023/01/07 11:21:40;;;;;;;2.08;1.17;;;;;;;15.27;52.01;100830.19;4982281;28;20073;-43
2023/01/07 11:24:26;;;;;;;2.05;1.20;;;;;;;15.16;52.08;100824.13;4979665;28;20047;-43
2023/01/07 11:26:58;;;;;;;2.15;1.20;;;;;;;15.30;51.25;100821.44;4979943;28;20101;-44
2023/01/07 11:29:27;;;;;;;1.90;1.10;;;;;;;15.71;50.78;100829.03;4983820;28;20092;-42
2023/01/07 11:31:58;;;;;;;1.70;1.20;;;;;;;15.59;50.45;100834.38;4979057;28;20071;-42
2023/01/07 11:34:34;;;;;;;2.92;1.65;;;;;;;15.57;50.81;100810.72;4984236;28;20038;-41
2023/01/07 11:37:01;;;;;;;1.65;1.13;;;;;;;15.61;50.79;100804.59;4980703;28;20034;-44